createdAt,value
2022-10-18T00:01:04.777Z,30.90
2022-10-18T00:03:33.604Z,35.05
2022-10-18T00:06:02.092Z,34.10
2022-10-18T00:08:30.695Z,32.90
2022-10-18T00:11:00.103Z,33.42
2022-10-18T00:13:28.379Z,31.65
2022-10-18T00:15:58.687Z,32.58
2022-10-18T00:18:26.854Z,29.13
2022-10-18T00:20:59.391Z,33.65
2022-10-18T00:23:28.827Z,29.80
2022-10-18T00:26:03.597Z,31.23
2022-10-18T00:28:31.878Z,32.25
2022-10-18T00:31:16.324Z,30.50
2022-10-18T00:33:45.491Z,34.63
2022-10-18T00:36:14.845Z,33.15
2022-10-18T00:38:43.517Z,34.95
2022-10-18T00:41:16.658Z,29.33
2022-10-18T00:43:56.220Z,31.10
2022-10-18T00:46:25.634Z,29.70
2022-10-18T00:48:55.638Z,28.38
2022-10-18T00:51:24.700Z,27.45
2022-10-18T00:53:53.392Z,29.25
2022-10-18T00:56:23.059Z,28.63
2022-10-18T00:58:52.825Z,32.45
2022-10-18T01:01:24.410Z,29.67
2022-10-18T01:03:57.095Z,27.50
2022-10-18T01:06:26.175Z,35.10
2022-10-18T01:09:07.187Z,29.52
2022-10-18T01:11:52.100Z,32.65
2022-10-18T01:14:36.132Z,30.10
2022-10-18T01:17:13.188Z,33.63
2022-10-18T01:20:13.801Z,33.25
2022-10-18T01:22:46.712Z,39.10
2022-10-18T01:25:30.523Z,37.67
2022-10-18T01:28:09.061Z,31.23
2022-10-18T01:31:05.001Z,25.88
2022-10-18T01:33:38.991Z,31.85
2022-10-18T01:36:15.518Z,33.15
2022-10-18T01:38:45.804Z,31.95
2022-10-18T01:41:16.068Z,31.58
2022-10-18T01:43:46.645Z,31.42
2022-10-18T01:46:19.750Z,35.65
2022-10-18T01:48:48.129Z,32.88
2022-10-18T01:51:16.202Z,31.15
2022-10-18T01:53:44.115Z,33.70
2022-10-18T01:56:28.944Z,29.83
2022-10-18T01:59:08.580Z,34.17
2022-10-18T02:01:48.738Z,33.22
2022-10-18T02:04:24.817Z,30.30
2022-10-18T02:06:59.273Z,36.47
2022-10-18T02:09:35.510Z,40.13
2022-10-18T02:12:04.980Z,37.00
2022-10-18T02:14:33.962Z,36.25
2022-10-18T02:17:09.207Z,36.78
2022-10-18T02:19:40.997Z,36.90
2022-10-18T02:22:12.394Z,43.70
2022-10-18T02:24:44.057Z,38.05
2022-10-18T02:27:12.341Z,30.50
2022-10-18T02:29:41.745Z,35.67
2022-10-18T02:32:17.929Z,42.00
2022-10-18T02:34:48.953Z,31.55
2022-10-18T02:37:18.773Z,32.80
2022-10-18T02:39:49.791Z,37.58
2022-10-18T02:42:18.882Z,33.85
2022-10-18T02:44:47.516Z,33.95
2022-10-18T02:47:17.933Z,35.70
2022-10-18T02:49:45.899Z,39.00
2022-10-18T02:52:13.888Z,35.22
2022-10-18T02:54:41.863Z,36.78
2022-10-18T02:57:09.889Z,41.15
2022-10-18T02:59:39.276Z,37.33
2022-10-18T03:02:07.387Z,40.17
2022-10-18T03:04:36.711Z,29.25
2022-10-18T03:07:04.789Z,38.60
2022-10-18T03:09:33.096Z,34.85
2022-10-18T03:12:01.038Z,29.70
2022-10-18T03:14:29.017Z,32.67
2022-10-18T03:16:56.993Z,43.75
2022-10-18T03:19:25.093Z,35.65
2022-10-18T03:21:54.459Z,38.70
2022-10-18T03:24:22.460Z,33.63
2022-10-18T03:26:50.512Z,41.90
2022-10-18T03:29:18.534Z,42.03
2022-10-18T03:31:47.635Z,50.22
2022-10-18T03:34:16.930Z,42.38
2022-10-18T03:36:45.177Z,40.83
2022-10-18T03:39:14.559Z,32.97
2022-10-18T03:41:42.600Z,37.67
2022-10-18T03:44:10.919Z,34.13
2022-10-18T03:46:39.008Z,38.83
2022-10-18T03:49:07.039Z,35.08
2022-10-18T03:51:35.017Z,36.50
2022-10-18T03:54:03.089Z,37.13
2022-10-18T03:56:32.999Z,36.58
2022-10-18T03:59:01.019Z,39.35
2022-10-18T04:01:29.127Z,32.92
2022-10-18T04:03:57.140Z,44.10
2022-10-18T04:06:25.182Z,35.78
2022-10-18T04:08:53.189Z,32.65
2022-10-18T04:11:21.133Z,33.40
2022-10-18T04:13:51.019Z,34.50
2022-10-18T04:16:19.003Z,32.55
2022-10-18T04:18:46.972Z,40.55
2022-10-18T04:21:15.328Z,34.30
2022-10-18T04:23:43.380Z,32.13
2022-10-18T04:26:11.653Z,34.25
2022-10-18T04:28:40.303Z,32.72
2022-10-18T04:31:10.642Z,35.08
2022-10-18T04:33:39.232Z,32.25
2022-10-18T04:36:07.688Z,33.95
2022-10-18T04:38:35.809Z,35.00
2022-10-18T04:41:04.200Z,37.22
2022-10-18T04:43:32.327Z,33.63
2022-10-18T04:46:00.464Z,39.42
2022-10-18T04:48:29.824Z,30.75
2022-10-18T04:50:57.847Z,42.53
2022-10-18T04:53:25.806Z,38.67
2022-10-18T04:55:53.900Z,37.83
2022-10-18T04:58:21.887Z,37.22
2022-10-18T05:00:51.062Z,45.80
2022-10-18T05:03:19.072Z,38.85
2022-10-18T05:06:03.936Z,37.72
2022-10-18T05:08:32.948Z,37.78
2022-10-18T05:11:01.641Z,43.13
2022-10-18T05:13:29.951Z,42.47
2022-10-18T05:15:59.485Z,39.53
2022-10-18T05:18:27.682Z,52.47
2022-10-18T05:20:57.688Z,38.58
2022-10-18T05:23:26.353Z,47.97
2022-10-18T05:25:54.994Z,46.47
2022-10-18T05:28:41.022Z,45.55
2022-10-18T05:31:12.431Z,48.03
2022-10-18T05:33:40.893Z,49.03
2022-10-18T05:36:11.443Z,42.85
2022-10-18T05:38:42.201Z,46.78
2022-10-18T05:41:17.355Z,38.28
2022-10-18T05:43:45.454Z,42.92
2022-10-18T05:46:15.523Z,50.85
2022-10-18T05:48:45.194Z,46.58
2022-10-18T05:51:15.006Z,42.38
2022-10-18T05:53:43.315Z,45.25
2022-10-18T05:56:12.612Z,47.63
2022-10-18T05:58:41.119Z,46.28
2022-10-18T06:01:11.348Z,51.60
2022-10-18T06:03:39.616Z,47.03
2022-10-18T06:06:10.363Z,45.83
2022-10-18T06:08:41.046Z,52.53
2022-10-18T06:11:10.359Z,54.15
2022-10-18T06:13:42.252Z,49.55
2022-10-18T06:16:11.532Z,50.40
2022-10-18T06:18:40.088Z,47.92
2022-10-18T06:21:08.897Z,52.05
2022-10-18T06:23:37.100Z,53.10
2022-10-18T06:26:08.714Z,42.88
2022-10-18T06:28:39.966Z,50.13
2022-10-18T06:31:08.948Z,44.88
2022-10-18T06:33:37.978Z,40.40
2022-10-18T06:36:08.504Z,43.20
2022-10-18T06:38:36.996Z,44.50
2022-10-18T06:41:08.880Z,35.63
2022-10-18T06:43:37.585Z,40.05
2022-10-18T06:46:07.824Z,34.22
2022-10-18T06:48:36.437Z,36.65
2022-10-18T06:51:06.468Z,31.00
2022-10-18T06:53:43.785Z,33.97
2022-10-18T06:56:18.226Z,36.25
2022-10-18T06:58:46.487Z,30.13
2022-10-18T07:01:16.768Z,27.52
2022-10-18T07:03:45.634Z,30.15
2022-10-18T07:06:15.091Z,32.10
2022-10-18T07:08:43.290Z,29.10
2022-10-18T07:11:16.625Z,27.10
2022-10-18T07:13:46.793Z,27.73
2022-10-18T07:16:18.622Z,27.13
2022-10-18T07:18:49.643Z,24.80
2022-10-18T07:21:19.551Z,26.83
2022-10-18T07:23:48.393Z,24.60
2022-10-18T07:26:18.757Z,27.15
2022-10-18T07:28:52.236Z,25.95
2022-10-18T07:31:20.727Z,29.15
2022-10-18T07:33:49.166Z,27.05
2022-10-18T07:36:17.399Z,26.77
2022-10-18T07:38:45.768Z,34.53
2022-10-18T07:41:15.249Z,30.13
2022-10-18T07:43:45.967Z,32.08
2022-10-18T07:46:16.698Z,27.40
2022-10-18T07:48:45.111Z,30.80
2022-10-18T07:51:13.638Z,27.98
2022-10-18T07:53:42.204Z,31.02
2022-10-18T07:56:16.581Z,32.78
2022-10-18T07:58:45.465Z,24.92
2022-10-18T08:01:16.688Z,25.77
2022-10-18T08:03:45.401Z,26.08
2022-10-18T08:06:15.191Z,24.98
2022-10-18T08:08:44.000Z,31.35
2022-10-18T08:11:14.904Z,30.00
2022-10-18T08:13:43.589Z,28.90
2022-10-18T08:16:13.985Z,25.45
2022-10-18T08:18:44.037Z,30.05
2022-10-18T08:21:14.110Z,27.95
2022-10-18T08:23:42.614Z,29.42
2022-10-18T08:26:13.092Z,24.50
2022-10-18T08:28:46.125Z,34.58
2022-10-18T08:31:23.063Z,27.48
2022-10-18T08:33:52.725Z,36.58
2022-10-18T08:36:20.960Z,32.50
2022-10-18T08:38:49.495Z,34.05
2022-10-18T08:41:34.341Z,36.17
2022-10-18T08:44:09.146Z,31.55
2022-10-18T08:46:40.081Z,30.90
2022-10-18T08:49:17.053Z,32.95
2022-10-18T08:51:47.927Z,33.05
2022-10-18T08:54:23.470Z,37.95
2022-10-18T08:57:00.095Z,34.63
2022-10-18T08:59:34.023Z,34.53
2022-10-18T09:02:14.088Z,41.55
2022-10-18T09:04:50.752Z,37.42
2022-10-18T09:07:37.011Z,33.85
2022-10-18T09:10:11.675Z,37.30
2022-10-18T09:13:01.501Z,28.95
2022-10-18T09:15:40.866Z,32.33
2022-10-18T09:18:24.135Z,30.33
2022-10-18T09:20:58.256Z,28.10
2022-10-18T09:23:40.480Z,33.28
2022-10-18T09:26:15.097Z,30.35
2022-10-18T09:28:52.710Z,36.92
2022-10-18T09:31:28.936Z,31.02
2022-10-18T09:36:52.992Z,32.08
2022-10-18T09:39:25.066Z,33.90
2022-10-18T09:41:58.693Z,28.98
2022-10-18T09:44:31.421Z,36.00
2022-10-18T09:47:04.006Z,30.63
2022-10-18T09:49:38.595Z,33.63
2022-10-18T09:52:15.201Z,32.38
2022-10-18T09:54:48.967Z,33.80
2022-10-18T09:57:23.482Z,31.55
2022-10-18T09:59:52.405Z,35.30
2022-10-18T10:02:22.957Z,31.75
2022-10-18T10:04:51.879Z,37.20
2022-10-18T10:07:25.172Z,40.15
2022-10-18T10:09:58.566Z,46.47
2022-10-18T10:12:29.863Z,43.45
2022-10-18T10:15:18.977Z,37.72
2022-10-18T10:17:57.494Z,41.03
2022-10-18T10:20:34.131Z,38.15
2022-10-18T10:23:10.115Z,44.08
2022-10-18T10:25:39.427Z,42.25
2022-10-18T10:28:14.484Z,40.55
2022-10-18T10:30:49.209Z,42.92
2022-10-18T10:33:33.602Z,43.70
2022-10-18T10:36:04.383Z,41.92
2022-10-18T10:38:34.417Z,39.55
2022-10-18T10:41:02.840Z,33.67
2022-10-18T10:43:39.169Z,44.13
2022-10-18T10:46:10.992Z,37.90
2022-10-18T10:48:48.600Z,39.22
2022-10-18T10:51:28.367Z,32.00
2022-10-18T10:54:02.789Z,35.95
2022-10-18T10:56:33.300Z,35.33
2022-10-18T10:59:11.657Z,36.03
2022-10-18T11:01:40.404Z,40.30
2022-10-18T11:04:25.760Z,38.40
2022-10-18T11:07:05.263Z,37.60
2022-10-18T11:09:43.905Z,41.78
2022-10-18T11:12:26.585Z,30.48
2022-10-18T11:15:05.607Z,41.00
2022-10-18T11:17:41.241Z,30.80
2022-10-18T11:20:17.651Z,28.17
2022-10-18T11:22:59.934Z,30.48
2022-10-18T11:25:50.530Z,32.65
2022-10-18T11:28:29.930Z,29.38
2022-10-18T11:31:10.007Z,31.88
2022-10-18T11:34:08.640Z,31.10
2022-10-18T11:36:54.843Z,34.05
2022-10-18T11:39:42.583Z,32.85
2022-10-18T11:42:20.817Z,34.33
2022-10-18T11:45:00.171Z,30.25
2022-10-18T11:47:35.749Z,32.35
2022-10-18T11:50:21.332Z,39.97
2022-10-18T11:52:59.348Z,32.80
2022-10-18T11:55:38.180Z,38.60
2022-10-18T11:58:21.921Z,33.75
2022-10-18T12:00:54.966Z,36.67
2022-10-18T12:03:34.746Z,34.00
2022-10-18T12:06:07.074Z,38.10
2022-10-18T12:08:41.448Z,41.72
2022-10-18T12:11:16.345Z,42.40
2022-10-18T12:13:50.169Z,46.55
2022-10-18T12:16:33.532Z,44.22
2022-10-18T12:19:23.304Z,49.92
2022-10-18T12:21:56.093Z,45.95
2022-10-18T12:24:30.079Z,57.13
2022-10-18T12:27:01.083Z,54.38
2022-10-18T12:29:37.835Z,50.22
2022-10-18T12:32:28.244Z,54.83
2022-10-18T12:35:00.942Z,58.80
2022-10-18T12:37:56.400Z,60.88
2022-10-18T12:40:27.093Z,57.63
2022-10-18T12:42:55.649Z,57.88
2022-10-18T12:45:32.460Z,61.63
2022-10-18T12:48:02.083Z,60.75
2022-10-18T12:50:37.216Z,57.42
2022-10-18T12:53:21.342Z,52.42
2022-10-18T12:55:51.568Z,65.40
2022-10-18T12:58:30.379Z,61.20
2022-10-18T13:01:03.201Z,52.95
2022-10-18T13:03:59.118Z,54.58
2022-10-18T13:06:47.272Z,57.05
2022-10-18T13:09:22.053Z,50.65
2022-10-18T13:11:51.280Z,45.47
2022-10-18T13:15:07.324Z,37.53
2022-10-18T13:17:48.894Z,40.08
2022-10-18T13:20:27.221Z,35.70
2022-10-18T13:25:58.673Z,39.75
2022-10-18T13:28:35.102Z,45.90
2022-10-18T13:31:17.067Z,38.22
2022-10-18T13:33:47.165Z,42.03
2022-10-18T13:36:24.977Z,40.85
2022-10-18T13:39:06.682Z,37.75
2022-10-18T13:42:13.497Z,30.83
2022-10-18T13:44:43.624Z,24.45
2022-10-18T13:47:14.483Z,20.40
2022-10-18T13:50:16.698Z,21.58
2022-10-18T13:53:02.413Z,17.13
2022-10-18T13:55:52.074Z,16.17
2022-10-18T13:58:33.564Z,15.68
2022-10-18T14:01:14.748Z,15.82
2022-10-18T14:04:15.067Z,14.25
2022-10-18T14:06:45.204Z,15.50
2022-10-18T14:09:26.165Z,14.07
2022-10-18T14:12:18.017Z,12.55
2022-10-18T14:14:52.043Z,11.45
2022-10-18T14:17:31.568Z,13.63
2022-10-18T14:20:06.260Z,12.13
2022-10-18T14:22:41.439Z,14.82
2022-10-18T14:25:23.263Z,13.80
2022-10-18T14:28:06.914Z,12.15
2022-10-18T14:30:37.590Z,14.75
2022-10-18T14:33:07.152Z,14.77
2022-10-18T14:35:35.849Z,16.60
2022-10-18T14:38:04.465Z,14.40
2022-10-18T14:40:39.941Z,16.00
2022-10-18T14:43:12.969Z,14.40
2022-10-18T14:45:41.793Z,15.00
2022-10-18T14:48:16.967Z,18.92
2022-10-18T14:50:48.431Z,17.58
2022-10-18T14:53:18.781Z,12.85
2022-10-18T14:55:57.425Z,13.50
2022-10-18T14:58:25.565Z,14.40
2022-10-18T15:00:54.240Z,13.75
2022-10-18T15:03:22.900Z,13.68
2022-10-18T15:05:56.435Z,11.32
2022-10-18T15:08:27.577Z,8.82
2022-10-18T15:10:58.312Z,15.30
2022-10-18T15:13:26.821Z,8.52
2022-10-18T15:15:57.070Z,9.63
2022-10-18T15:18:27.753Z,6.15
2022-10-18T15:21:09.628Z,8.32
2022-10-18T15:23:37.936Z,10.82
2022-10-18T15:26:11.537Z,10.68
2022-10-18T15:28:49.748Z,15.75
2022-10-18T15:31:25.477Z,12.43
2022-10-18T15:33:54.960Z,9.50
2022-10-18T15:36:29.749Z,6.22
2022-10-18T15:39:09.941Z,5.75
2022-10-18T15:41:41.699Z,8.05
2022-10-18T15:44:21.496Z,11.52
2022-10-18T15:46:52.913Z,11.85
2022-10-18T15:50:00.854Z,8.18
2022-10-18T15:52:38.117Z,8.90
2022-10-18T15:55:48.354Z,8.80
2022-10-18T15:58:24.413Z,9.70
2022-10-18T16:00:54.407Z,14.27
2022-10-18T16:03:24.246Z,14.20
2022-10-18T16:05:57.049Z,13.70
2022-10-18T16:08:29.005Z,11.98
2022-10-18T16:10:57.757Z,10.98
2022-10-18T16:13:28.415Z,10.52
2022-10-18T16:15:56.784Z,16.13
2022-10-18T16:18:26.097Z,15.98
2022-10-18T16:20:54.366Z,15.60
2022-10-18T16:23:25.476Z,21.15
2022-10-18T16:25:53.973Z,27.40
2022-10-18T16:28:23.889Z,29.90
2022-10-18T16:31:00.993Z,19.52
2022-10-18T16:33:29.452Z,22.15
2022-10-18T16:35:58.384Z,21.63
2022-10-18T16:38:32.629Z,18.60
2022-10-18T16:41:02.866Z,20.20
2022-10-18T16:43:31.165Z,16.77
2022-10-18T16:46:00.511Z,17.38
2022-10-18T16:48:29.223Z,15.05
2022-10-18T16:50:59.150Z,15.30
2022-10-18T16:53:28.021Z,15.65
2022-10-18T16:55:58.472Z,16.75
2022-10-18T16:58:28.203Z,17.60
2022-10-18T17:00:56.814Z,18.65
2022-10-18T17:03:26.752Z,19.55
2022-10-18T17:05:56.292Z,20.38
2022-10-18T17:08:26.623Z,20.48
2022-10-18T17:10:56.992Z,12.95
2022-10-18T17:13:26.719Z,13.18
2022-10-18T17:15:55.018Z,13.38
2022-10-18T17:18:26.480Z,14.48
2022-10-18T17:20:59.322Z,13.13
2022-10-18T17:23:27.522Z,12.00
2022-10-18T17:26:05.486Z,10.00
2022-10-18T17:28:43.221Z,10.20
2022-10-18T17:31:11.810Z,9.23
2022-10-18T17:33:40.125Z,11.13
2022-10-18T17:36:09.605Z,10.60
2022-10-18T17:38:37.598Z,12.95
2022-10-18T17:41:08.270Z,12.48
2022-10-18T17:43:37.817Z,13.85
2022-10-18T17:46:06.677Z,15.77
2022-10-18T17:48:34.938Z,13.63
2022-10-18T17:51:09.919Z,9.93
2022-10-18T17:53:37.948Z,8.45
2022-10-18T17:56:07.712Z,11.85
2022-10-18T17:58:36.215Z,11.68
2022-10-18T18:01:11.655Z,11.23
2022-10-18T18:03:39.737Z,13.10
2022-10-18T18:06:17.424Z,7.47
2022-10-18T18:08:46.012Z,6.85
2022-10-18T18:11:14.151Z,7.93
2022-10-18T18:13:42.609Z,11.43
2022-10-18T18:16:11.983Z,7.63
2022-10-18T18:18:40.013Z,7.82
2022-10-18T18:21:08.049Z,9.50
2022-10-18T18:23:37.458Z,9.25
2022-10-18T18:26:05.590Z,10.77
2022-10-18T18:28:34.619Z,9.90
2022-10-18T18:31:07.248Z,9.63
2022-10-18T18:33:36.018Z,13.60
2022-10-18T18:36:06.722Z,12.90
2022-10-18T18:38:36.578Z,18.98
2022-10-18T18:41:07.897Z,18.52
2022-10-18T18:43:36.311Z,16.20
2022-10-18T18:46:04.638Z,15.38
2022-10-18T18:48:34.023Z,15.77
2022-10-18T18:51:02.172Z,13.45
2022-10-18T18:53:30.623Z,13.52
2022-10-18T18:56:07.998Z,15.82
2022-10-18T18:58:37.546Z,17.33
2022-10-18T19:01:09.683Z,15.93
2022-10-18T19:03:40.195Z,18.88
2022-10-18T19:06:10.766Z,19.95
2022-10-18T19:08:40.278Z,20.52
2022-10-18T19:11:09.836Z,18.98
2022-10-18T19:13:37.909Z,17.17
2022-10-18T19:16:22.864Z,16.50
2022-10-18T19:18:52.725Z,16.95
2022-10-18T19:21:21.262Z,15.18
2022-10-18T19:23:50.266Z,11.05
2022-10-18T19:26:33.013Z,12.82
2022-10-18T19:29:02.624Z,12.50
2022-10-18T19:31:31.370Z,13.38
2022-10-18T19:34:00.185Z,17.67
2022-10-18T19:36:30.246Z,13.63
2022-10-18T19:38:58.676Z,15.27
2022-10-18T19:41:29.316Z,16.20
2022-10-18T19:43:58.076Z,14.20
2022-10-18T19:46:26.587Z,17.80
2022-10-18T19:48:55.005Z,18.55
2022-10-18T19:51:27.787Z,17.77
2022-10-18T19:53:57.006Z,20.05
2022-10-18T19:56:26.866Z,17.27
2022-10-18T19:58:57.073Z,20.00
2022-10-18T20:01:25.676Z,17.50
2022-10-18T20:03:53.925Z,17.63
2022-10-18T20:06:22.646Z,16.83
2022-10-18T20:08:51.090Z,18.27
2022-10-18T20:11:22.844Z,19.55
2022-10-18T20:13:51.044Z,24.08
2022-10-18T20:16:28.135Z,21.70
2022-10-18T20:18:58.248Z,20.60
2022-10-18T20:21:27.327Z,20.52
2022-10-18T20:23:56.005Z,19.17
2022-10-18T20:26:25.590Z,18.98
2022-10-18T20:28:57.788Z,18.98
2022-10-18T20:31:29.542Z,22.25
2022-10-18T20:33:59.209Z,21.10
2022-10-18T20:36:28.827Z,22.08
2022-10-18T20:38:57.162Z,15.80
2022-10-18T20:41:27.112Z,15.93
2022-10-18T20:43:57.303Z,16.92
2022-10-18T20:46:27.491Z,15.70
2022-10-18T20:48:55.823Z,16.63
2022-10-18T20:51:24.316Z,19.88
2022-10-18T20:53:53.519Z,19.13
2022-10-18T20:56:25.282Z,18.13
2022-10-18T20:58:56.011Z,14.63
2022-10-18T21:01:26.123Z,16.55
2022-10-18T21:03:57.331Z,18.73
2022-10-18T21:06:27.315Z,20.35
2022-10-18T21:08:56.813Z,22.92
2022-10-18T21:11:26.238Z,24.35
2022-10-18T21:13:55.958Z,19.85
2022-10-18T21:16:24.069Z,20.52
2022-10-18T21:18:52.256Z,26.02
2022-10-18T21:21:23.835Z,25.77
2022-10-18T21:23:52.780Z,21.00
2022-10-18T21:26:22.274Z,21.75
2022-10-18T21:28:51.775Z,21.67
2022-10-18T21:31:22.406Z,19.45
2022-10-18T21:33:54.391Z,20.13
2022-10-18T21:36:24.316Z,20.75
2022-10-18T21:38:52.994Z,19.52
2022-10-18T21:41:22.453Z,21.23
2022-10-18T21:43:51.869Z,27.60
2022-10-18T21:46:21.856Z,23.20
2022-10-18T21:48:51.659Z,23.48
2022-10-18T21:51:22.577Z,30.33
2022-10-18T21:53:53.743Z,26.15
2022-10-18T21:56:23.628Z,22.70
2022-10-18T21:58:51.643Z,28.50
2022-10-18T22:01:21.878Z,23.60
2022-10-18T22:03:52.431Z,28.35
2022-10-18T22:06:21.484Z,26.65
2022-10-18T22:08:52.392Z,30.77
2022-10-18T22:11:22.971Z,26.48
2022-10-18T22:13:51.254Z,23.30
2022-10-18T22:16:19.564Z,29.40
2022-10-18T22:18:48.790Z,30.70
2022-10-18T22:21:18.618Z,28.95
2022-10-18T22:23:48.695Z,30.83
2022-10-18T22:26:20.149Z,28.33
2022-10-18T22:28:49.399Z,29.35
2022-10-18T22:31:18.919Z,32.83
2022-10-18T22:33:47.387Z,29.95
2022-10-18T22:36:15.510Z,29.05
2022-10-18T22:38:43.502Z,32.67
2022-10-18T22:41:12.809Z,37.17
2022-10-18T22:43:42.249Z,33.97
2022-10-18T22:46:12.644Z,33.10
2022-10-18T22:48:40.652Z,28.85
2022-10-18T22:51:09.196Z,34.10
2022-10-18T22:53:37.651Z,32.58
2022-10-18T22:56:06.823Z,32.85
2022-10-18T22:58:34.889Z,31.25
2022-10-18T23:01:06.633Z,34.03
2022-10-18T23:03:35.027Z,34.83
2022-10-18T23:06:03.141Z,30.08
2022-10-18T23:08:32.224Z,34.70
2022-10-18T23:11:00.868Z,32.92
2022-10-18T23:13:29.294Z,31.80
2022-10-18T23:16:04.761Z,44.17
2022-10-18T23:18:33.517Z,29.50
2022-10-18T23:21:03.066Z,31.25
2022-10-18T23:23:34.830Z,34.00
2022-10-18T23:26:05.999Z,34.75
2022-10-18T23:28:36.054Z,39.70
2022-10-18T23:31:10.831Z,35.70
2022-10-18T23:33:39.830Z,33.63
2022-10-18T23:36:09.589Z,39.65
2022-10-18T23:38:39.285Z,37.95
2022-10-18T23:41:09.021Z,41.15
2022-10-18T23:43:37.602Z,32.25
2022-10-18T23:46:06.255Z,43.60
2022-10-18T23:48:35.711Z,38.97
2022-10-18T23:51:04.605Z,35.03
2022-10-18T23:53:33.155Z,41.28
2022-10-18T23:56:03.655Z,38.55
2022-10-18T23:58:33.773Z,35.30
